CAT9506 LOWL-EKAH
Flight info
| Callsign | CAT9506 |
|---|---|
| Flight time | 1h 25m |
| Altitude | 39000 |
| Route | PETEN DCT BUDEX DCT HDO M725 GERGA T239 PEROM T298 KOSEB DCT OLPIB M725 INPUN DCT DESOM |
| Aircraft | B738/M-SDE2E3FGHIRWXY/LB2 |
Departure
| Time | 2026-05-05 07:01 |
|---|---|
| Airport | Linz-Hörsching Airport (LOWL) |
Arrival
| Time | 2026-05-05 08:26 |
|---|---|
| Airport | Aarhus Airport (EKAH) |
| Time | Latitude | Longitude | Altitude | Speed | Heading |
|---|---|---|---|---|---|
| 2026-05-05 06:40 | 48.23877 | 14.19133 | 969 ft | 0 kts | 266° |
| 2026-05-05 06:56 | 48.23877 | 14.19115 | 969 ft | 6 kts | 266° |
| 2026-05-05 06:57 | 48.23847 | 14.19074 | 969 ft | 9 kts | 182° |
| 2026-05-05 06:57 | 48.23759 | 14.19107 | 971 ft | 14 kts | 120° |
| 2026-05-05 06:57 | 48.23757 | 14.19258 | 969 ft | 16 kts | 87° |
| 2026-05-05 06:57 | 48.23763 | 14.19435 | 969 ft | 17 kts | 86° |
| 2026-05-05 06:58 | 48.23733 | 14.19610 | 966 ft | 19 kts | 147° |
| 2026-05-05 06:58 | 48.23610 | 14.19684 | 966 ft | 19 kts | 157° |
| 2026-05-05 06:58 | 48.23476 | 14.19759 | 966 ft | 20 kts | 160° |
| 2026-05-05 06:58 | 48.23361 | 14.19871 | 965 ft | 19 kts | 84° |
| 2026-05-05 06:59 | 48.23369 | 14.20081 | 963 ft | 21 kts | 86° |
| 2026-05-05 06:59 | 48.23376 | 14.20311 | 960 ft | 23 kts | 87° |
| 2026-05-05 06:59 | 48.23398 | 14.20571 | 956 ft | 26 kts | 75° |
| 2026-05-05 06:59 | 48.23379 | 14.20630 | 955 ft | 12 kts | 295° |
| 2026-05-05 07:00 | 48.23383 | 14.20527 | 957 ft | 11 kts | 267° |
| 2026-05-05 07:00 | 48.23370 | 14.20158 | 963 ft | 72 kts | 266° |
| 2026-05-05 07:00 | 48.23333 | 14.19035 | 970 ft | 141 kts | 266° |
| 2026-05-05 07:00 | 48.23275 | 14.17427 | 1449 ft | 158 kts | 265° |
| 2026-05-05 07:01 | 48.23204 | 14.15850 | 2310 ft | 155 kts | 265° |
| 2026-05-05 07:01 | 48.23128 | 14.14167 | 2933 ft | 171 kts | 267° |
| 2026-05-05 07:01 | 48.23186 | 14.12340 | 3574 ft | 184 kts | 289° |
| 2026-05-05 07:01 | 48.23929 | 14.10753 | 4185 ft | 197 kts | 323° |
| 2026-05-05 07:02 | 48.25209 | 14.09855 | 4753 ft | 216 kts | 349° |
| 2026-05-05 07:02 | 48.26733 | 14.09856 | 5440 ft | 229 kts | 13° |
| 2026-05-05 07:02 | 48.28295 | 14.10562 | 6084 ft | 246 kts | 20° |
| 2026-05-05 07:02 | 48.29971 | 14.11471 | 6788 ft | 263 kts | 21° |
| 2026-05-05 07:03 | 48.31727 | 14.12403 | 7517 ft | 278 kts | 20° |
| 2026-05-05 07:03 | 48.33567 | 14.13345 | 8455 ft | 286 kts | 20° |
| 2026-05-05 07:03 | 48.35448 | 14.14292 | 9457 ft | 292 kts | 20° |
| 2026-05-05 07:03 | 48.37405 | 14.15272 | 10443 ft | 300 kts | 20° |
| 2026-05-05 07:04 | 48.39421 | 14.16284 | 11160 ft | 318 kts | 19° |
| 2026-05-05 07:04 | 48.41560 | 14.17325 | 11871 ft | 336 kts | 17° |
| 2026-05-05 07:04 | 48.43851 | 14.18210 | 12807 ft | 346 kts | 13° |
| 2026-05-05 07:04 | 48.46246 | 14.18954 | 13866 ft | 353 kts | 11° |
| 2026-05-05 07:05 | 48.48651 | 14.19633 | 15003 ft | 356 kts | 10° |
| 2026-05-05 07:05 | 48.51087 | 14.20313 | 16112 ft | 361 kts | 10° |
| 2026-05-05 07:05 | 48.53517 | 14.21009 | 17167 ft | 365 kts | 10° |
| 2026-05-05 07:05 | 48.56016 | 14.21742 | 18173 ft | 370 kts | 10° |
| 2026-05-05 07:06 | 48.58545 | 14.22499 | 19187 ft | 374 kts | 10° |
| 2026-05-05 07:06 | 48.61126 | 14.23278 | 20171 ft | 379 kts | 10° |
| 2026-05-05 07:06 | 48.63723 | 14.24067 | 21089 ft | 384 kts | 9° |
| 2026-05-05 07:06 | 48.66332 | 14.24861 | 21992 ft | 389 kts | 9° |
| 2026-05-05 07:07 | 48.68995 | 14.25673 | 22876 ft | 393 kts | 9° |
| 2026-05-05 07:07 | 48.71672 | 14.26489 | 23720 ft | 398 kts | 10° |
| 2026-05-05 07:07 | 48.74377 | 14.27315 | 24523 ft | 403 kts | 10° |
| 2026-05-05 07:07 | 48.77134 | 14.28157 | 25319 ft | 408 kts | 9° |
| 2026-05-05 07:08 | 48.79948 | 14.29018 | 26135 ft | 412 kts | 10° |
| 2026-05-05 07:08 | 48.82762 | 14.29879 | 26873 ft | 417 kts | 9° |
| 2026-05-05 07:08 | 48.85617 | 14.30754 | 27616 ft | 421 kts | 9° |
| 2026-05-05 07:08 | 48.88503 | 14.31639 | 28301 ft | 426 kts | 10° |
| 2026-05-05 07:09 | 48.91414 | 14.32526 | 28997 ft | 431 kts | 9° |
| 2026-05-05 07:09 | 48.94366 | 14.33256 | 29669 ft | 434 kts | 5° |
| 2026-05-05 07:09 | 48.97401 | 14.33662 | 30321 ft | 438 kts | 1° |
| 2026-05-05 07:09 | 49.00446 | 14.33847 | 30991 ft | 441 kts | 359° |
| 2026-05-05 07:10 | 49.03452 | 14.33920 | 31907 ft | 436 kts | 358° |
| 2026-05-05 07:10 | 49.06496 | 14.33947 | 32778 ft | 433 kts | 358° |
| 2026-05-05 07:10 | 49.09491 | 14.33960 | 33689 ft | 428 kts | 357° |
| 2026-05-05 07:10 | 49.12453 | 14.33972 | 34471 ft | 426 kts | 357° |
| 2026-05-05 07:11 | 49.15409 | 14.33990 | 35119 ft | 424 kts | 357° |
| 2026-05-05 07:11 | 49.18332 | 14.34014 | 35628 ft | 425 kts | 357° |
| 2026-05-05 07:11 | 49.21303 | 14.34046 | 36136 ft | 426 kts | 357° |
| 2026-05-05 07:11 | 49.24248 | 14.34083 | 36642 ft | 426 kts | 357° |
| 2026-05-05 07:12 | 49.27198 | 14.34125 | 37235 ft | 426 kts | 357° |
| 2026-05-05 07:12 | 49.30141 | 14.34170 | 37835 ft | 426 kts | 357° |
| 2026-05-05 07:12 | 49.33108 | 14.34216 | 38370 ft | 427 kts | 357° |
| 2026-05-05 07:12 | 49.36080 | 14.34264 | 38814 ft | 428 kts | 357° |
| 2026-05-05 07:13 | 49.39055 | 14.34311 | 38845 ft | 432 kts | 356° |
| 2026-05-05 07:13 | 49.45005 | 14.34411 | 38839 ft | 425 kts | 357° |
| 2026-05-05 07:14 | 49.50927 | 14.34507 | 38840 ft | 426 kts | 357° |
| 2026-05-05 07:14 | 49.56846 | 14.34602 | 38834 ft | 426 kts | 357° |
| 2026-05-05 07:15 | 49.62770 | 14.34699 | 38838 ft | 427 kts | 357° |
| 2026-05-05 07:15 | 49.68686 | 14.34796 | 38842 ft | 427 kts | 356° |
| 2026-05-05 07:16 | 49.74615 | 14.34893 | 38850 ft | 426 kts | 356° |
| 2026-05-05 07:16 | 49.80574 | 14.34991 | 38855 ft | 427 kts | 356° |
| 2026-05-05 07:17 | 49.86483 | 14.35089 | 38858 ft | 425 kts | 356° |
| 2026-05-05 07:17 | 49.92403 | 14.35186 | 38868 ft | 427 kts | 356° |
| 2026-05-05 07:18 | 49.98339 | 14.35286 | 38863 ft | 426 kts | 356° |
| 2026-05-05 07:18 | 50.04252 | 14.35383 | 38860 ft | 427 kts | 356° |
| 2026-05-05 07:19 | 50.10186 | 14.35480 | 38861 ft | 427 kts | 356° |
| 2026-05-05 07:19 | 50.16111 | 14.35578 | 38857 ft | 427 kts | 356° |
| 2026-05-05 07:20 | 50.22074 | 14.35678 | 38852 ft | 427 kts | 356° |
| 2026-05-05 07:20 | 50.27972 | 14.35778 | 38855 ft | 427 kts | 356° |
| 2026-05-05 07:21 | 50.33916 | 14.35878 | 38855 ft | 427 kts | 356° |
| 2026-05-05 07:21 | 50.39852 | 14.35977 | 38846 ft | 426 kts | 356° |
| 2026-05-05 07:22 | 50.45761 | 14.36075 | 38849 ft | 427 kts | 356° |
| 2026-05-05 07:22 | 50.51711 | 14.36173 | 38846 ft | 428 kts | 356° |
| 2026-05-05 07:23 | 50.57670 | 14.36274 | 38851 ft | 428 kts | 356° |
| 2026-05-05 07:23 | 50.63609 | 14.36376 | 38845 ft | 427 kts | 356° |
| 2026-05-05 07:24 | 50.69551 | 14.36477 | 38850 ft | 428 kts | 356° |
| 2026-05-05 07:24 | 50.75467 | 14.36578 | 38845 ft | 427 kts | 356° |
| 2026-05-05 07:25 | 50.81424 | 14.36681 | 38854 ft | 427 kts | 356° |
| 2026-05-05 07:25 | 50.87351 | 14.36782 | 38856 ft | 428 kts | 356° |
| 2026-05-05 07:26 | 50.93263 | 14.36797 | 38850 ft | 425 kts | 353° |
| 2026-05-05 07:26 | 50.99147 | 14.35936 | 38854 ft | 424 kts | 348° |
| 2026-05-05 07:27 | 51.04981 | 14.34688 | 38845 ft | 422 kts | 347° |
| 2026-05-05 07:27 | 51.10804 | 14.33431 | 38853 ft | 424 kts | 348° |
| 2026-05-05 07:28 | 51.16649 | 14.32219 | 38858 ft | 422 kts | 348° |
| 2026-05-05 07:28 | 51.22460 | 14.31044 | 38855 ft | 423 kts | 348° |
| 2026-05-05 07:29 | 51.28326 | 14.29868 | 38851 ft | 424 kts | 348° |
| 2026-05-05 07:29 | 51.34129 | 14.28708 | 38851 ft | 423 kts | 348° |
| 2026-05-05 07:30 | 51.39976 | 14.27539 | 38851 ft | 424 kts | 348° |
| 2026-05-05 07:30 | 51.48771 | 14.25773 | 38859 ft | 424 kts | 348° |
| 2026-05-05 07:31 | 51.54603 | 14.24598 | 38866 ft | 424 kts | 348° |
| 2026-05-05 07:31 | 51.60420 | 14.23426 | 38854 ft | 423 kts | 348° |
| 2026-05-05 07:32 | 51.66275 | 14.22242 | 38857 ft | 424 kts | 348° |
| 2026-05-05 07:32 | 51.72123 | 14.21058 | 38849 ft | 424 kts | 348° |
| 2026-05-05 07:33 | 51.77937 | 14.19879 | 38853 ft | 424 kts | 348° |
| 2026-05-05 07:33 | 51.83799 | 14.18686 | 38863 ft | 424 kts | 348° |
| 2026-05-05 07:34 | 51.89643 | 14.17496 | 38858 ft | 425 kts | 348° |
| 2026-05-05 07:34 | 51.95475 | 14.16305 | 38858 ft | 423 kts | 348° |
| 2026-05-05 07:35 | 52.01321 | 14.15103 | 38861 ft | 424 kts | 348° |
| 2026-05-05 07:35 | 52.07142 | 14.13907 | 38868 ft | 425 kts | 348° |
| 2026-05-05 07:36 | 52.12980 | 14.12705 | 38859 ft | 425 kts | 347° |
| 2026-05-05 07:36 | 52.18854 | 14.11492 | 38860 ft | 425 kts | 347° |
| 2026-05-05 07:37 | 52.24683 | 14.10285 | 38865 ft | 425 kts | 348° |
| 2026-05-05 07:37 | 52.30560 | 14.09058 | 38865 ft | 424 kts | 348° |
| 2026-05-05 07:38 | 52.36393 | 14.07833 | 38861 ft | 424 kts | 347° |
| 2026-05-05 07:38 | 52.42224 | 14.06613 | 38865 ft | 424 kts | 347° |
| 2026-05-05 07:39 | 52.48056 | 14.05390 | 38862 ft | 423 kts | 347° |
| 2026-05-05 07:39 | 52.53913 | 14.04157 | 38863 ft | 424 kts | 347° |
| 2026-05-05 07:40 | 52.59755 | 14.02873 | 38876 ft | 424 kts | 345° |
| 2026-05-05 07:40 | 52.65446 | 14.00740 | 38870 ft | 420 kts | 340° |
| 2026-05-05 07:41 | 52.71057 | 13.98097 | 38862 ft | 419 kts | 339° |
| 2026-05-05 07:41 | 52.76633 | 13.95425 | 38876 ft | 419 kts | 339° |
| 2026-05-05 07:42 | 52.82243 | 13.92778 | 38874 ft | 419 kts | 339° |
| 2026-05-05 07:42 | 52.87837 | 13.90171 | 38884 ft | 419 kts | 339° |
| 2026-05-05 07:43 | 52.93427 | 13.87577 | 38872 ft | 419 kts | 339° |
| 2026-05-05 07:43 | 52.99062 | 13.84960 | 38883 ft | 420 kts | 339° |
| 2026-05-05 07:44 | 53.04673 | 13.82351 | 38879 ft | 419 kts | 339° |
| 2026-05-05 07:44 | 53.10260 | 13.79745 | 38884 ft | 420 kts | 339° |
| 2026-05-05 07:45 | 53.15901 | 13.77106 | 38878 ft | 420 kts | 339° |
| 2026-05-05 07:45 | 53.21518 | 13.74482 | 38888 ft | 419 kts | 339° |
| 2026-05-05 07:46 | 53.27101 | 13.71866 | 38885 ft | 419 kts | 339° |
| 2026-05-05 07:46 | 53.32716 | 13.69225 | 38882 ft | 421 kts | 339° |
| 2026-05-05 07:47 | 53.38348 | 13.66570 | 38886 ft | 420 kts | 339° |
| 2026-05-05 07:47 | 53.43934 | 13.63930 | 38887 ft | 421 kts | 339° |
| 2026-05-05 07:48 | 53.49564 | 13.61262 | 38890 ft | 421 kts | 339° |
| 2026-05-05 07:48 | 53.55157 | 13.58592 | 38897 ft | 421 kts | 339° |
| 2026-05-05 07:49 | 53.60772 | 13.55836 | 38884 ft | 420 kts | 339° |
| 2026-05-05 07:49 | 53.66369 | 13.53059 | 38895 ft | 421 kts | 339° |
| 2026-05-05 07:50 | 53.72013 | 13.50256 | 38895 ft | 421 kts | 339° |
| 2026-05-05 07:50 | 53.77588 | 13.47485 | 38896 ft | 421 kts | 339° |
| 2026-05-05 07:51 | 53.83203 | 13.44740 | 38896 ft | 421 kts | 339° |
| 2026-05-05 07:51 | 53.88829 | 13.42013 | 38889 ft | 420 kts | 339° |
| 2026-05-05 07:52 | 53.94441 | 13.39283 | 38895 ft | 422 kts | 340° |
| 2026-05-05 07:52 | 54.00057 | 13.36540 | 38890 ft | 421 kts | 339° |
| 2026-05-05 07:53 | 54.05660 | 13.33793 | 38898 ft | 421 kts | 339° |
| 2026-05-05 07:53 | 54.11295 | 13.31018 | 38895 ft | 422 kts | 338° |
| 2026-05-05 07:54 | 54.16937 | 13.28236 | 38904 ft | 420 kts | 338° |
| 2026-05-05 07:54 | 54.22519 | 13.25473 | 38913 ft | 420 kts | 339° |
| 2026-05-05 07:55 | 54.28121 | 13.22693 | 38909 ft | 419 kts | 339° |
| 2026-05-05 07:55 | 54.33675 | 13.19928 | 38912 ft | 420 kts | 339° |
| 2026-05-05 07:56 | 54.39271 | 13.17136 | 38912 ft | 419 kts | 339° |
| 2026-05-05 07:56 | 54.44724 | 13.13947 | 38912 ft | 413 kts | 329° |
| 2026-05-05 07:57 | 54.49370 | 13.08394 | 38913 ft | 405 kts | 313° |
| 2026-05-05 07:57 | 54.53419 | 13.01728 | 38911 ft | 403 kts | 310° |
| 2026-05-05 07:58 | 54.57345 | 12.94962 | 38915 ft | 402 kts | 310° |
| 2026-05-05 07:58 | 54.59325 | 12.91564 | 38742 ft | 396 kts | 310° |
| 2026-05-05 07:58 | 54.61259 | 12.88268 | 38399 ft | 391 kts | 311° |
| 2026-05-05 07:59 | 54.63184 | 12.84995 | 37950 ft | 390 kts | 311° |
| 2026-05-05 07:59 | 54.65113 | 12.81719 | 37429 ft | 390 kts | 310° |
| 2026-05-05 07:59 | 54.67041 | 12.78447 | 36886 ft | 390 kts | 310° |
| 2026-05-05 07:59 | 54.68952 | 12.75205 | 36334 ft | 391 kts | 310° |
| 2026-05-05 08:00 | 54.70897 | 12.71902 | 35882 ft | 393 kts | 310° |
| 2026-05-05 08:00 | 54.72850 | 12.68580 | 35321 ft | 398 kts | 310° |
| 2026-05-05 08:00 | 54.74833 | 12.65209 | 34631 ft | 403 kts | 311° |
| 2026-05-05 08:00 | 54.76869 | 12.61937 | 33841 ft | 407 kts | 314° |
| 2026-05-05 08:01 | 54.79077 | 12.58901 | 33228 ft | 409 kts | 319° |
| 2026-05-05 08:01 | 54.81444 | 12.56205 | 32738 ft | 406 kts | 323° |
| 2026-05-05 08:01 | 54.83859 | 12.53735 | 32247 ft | 403 kts | 325° |
| 2026-05-05 08:01 | 54.86289 | 12.51370 | 31753 ft | 399 kts | 326° |
| 2026-05-05 08:02 | 54.88710 | 12.49052 | 31265 ft | 394 kts | 326° |
| 2026-05-05 08:02 | 54.91067 | 12.46794 | 30784 ft | 390 kts | 326° |
| 2026-05-05 08:02 | 54.93406 | 12.44539 | 30288 ft | 385 kts | 325° |
| 2026-05-05 08:02 | 54.95748 | 12.42263 | 29803 ft | 380 kts | 325° |
| 2026-05-05 08:03 | 54.98015 | 12.40043 | 29340 ft | 374 kts | 325° |
| 2026-05-05 08:03 | 55.00248 | 12.37808 | 28860 ft | 370 kts | 323° |
| 2026-05-05 08:03 | 55.02411 | 12.35345 | 28393 ft | 373 kts | 320° |
| 2026-05-05 08:03 | 55.04488 | 12.32747 | 27926 ft | 370 kts | 317° |
| 2026-05-05 08:04 | 55.06530 | 12.30111 | 27461 ft | 365 kts | 317° |
| 2026-05-05 08:04 | 55.08551 | 12.27484 | 27008 ft | 359 kts | 317° |
| 2026-05-05 08:04 | 55.10554 | 12.24890 | 26559 ft | 354 kts | 317° |
| 2026-05-05 08:04 | 55.12506 | 12.22374 | 26123 ft | 351 kts | 317° |
| 2026-05-05 08:05 | 55.14495 | 12.19814 | 25674 ft | 357 kts | 317° |
| 2026-05-05 08:05 | 55.16494 | 12.17245 | 25217 ft | 355 kts | 317° |
| 2026-05-05 08:05 | 55.18465 | 12.14726 | 24779 ft | 349 kts | 317° |
| 2026-05-05 08:05 | 55.20396 | 12.12265 | 24340 ft | 344 kts | 317° |
| 2026-05-05 08:06 | 55.22308 | 12.09831 | 23919 ft | 339 kts | 317° |
| 2026-05-05 08:06 | 55.24207 | 12.07407 | 23501 ft | 343 kts | 317° |
| 2026-05-05 08:06 | 55.26143 | 12.04927 | 23053 ft | 344 kts | 317° |
| 2026-05-05 08:06 | 55.28060 | 12.02477 | 22622 ft | 339 kts | 317° |
| 2026-05-05 08:07 | 55.29942 | 12.00073 | 22198 ft | 334 kts | 317° |
| 2026-05-05 08:07 | 55.31798 | 11.97701 | 21785 ft | 329 kts | 317° |
| 2026-05-05 08:07 | 55.33620 | 11.95368 | 21374 ft | 324 kts | 317° |
| 2026-05-05 08:07 | 55.35437 | 11.93032 | 20967 ft | 328 kts | 317° |
| 2026-05-05 08:08 | 55.37289 | 11.90642 | 20543 ft | 329 kts | 317° |
| 2026-05-05 08:08 | 55.39127 | 11.88275 | 20122 ft | 324 kts | 317° |
| 2026-05-05 08:08 | 55.40915 | 11.85974 | 19719 ft | 319 kts | 317° |
| 2026-05-05 08:08 | 55.42678 | 11.83705 | 19314 ft | 314 kts | 317° |
| 2026-05-05 08:09 | 55.44423 | 11.81455 | 18913 ft | 310 kts | 317° |
| 2026-05-05 08:09 | 55.46164 | 11.79198 | 18516 ft | 315 kts | 317° |
| 2026-05-05 08:09 | 55.47942 | 11.76886 | 18109 ft | 315 kts | 317° |
| 2026-05-05 08:09 | 55.49674 | 11.74639 | 17706 ft | 310 kts | 317° |
| 2026-05-05 08:10 | 55.51388 | 11.72421 | 17320 ft | 305 kts | 318° |
| 2026-05-05 08:10 | 55.53083 | 11.70222 | 16933 ft | 300 kts | 318° |
| 2026-05-05 08:10 | 55.54761 | 11.68038 | 16556 ft | 304 kts | 318° |
| 2026-05-05 08:10 | 55.56464 | 11.65813 | 16156 ft | 305 kts | 318° |
| 2026-05-05 08:11 | 55.58172 | 11.63587 | 15761 ft | 300 kts | 318° |
| 2026-05-05 08:11 | 55.59817 | 11.61447 | 15388 ft | 295 kts | 318° |
| 2026-05-05 08:11 | 55.61466 | 11.59296 | 15000 ft | 291 kts | 318° |
| 2026-05-05 08:11 | 55.63092 | 11.57169 | 14633 ft | 295 kts | 318° |
| 2026-05-05 08:12 | 55.64734 | 11.55013 | 14243 ft | 294 kts | 318° |
| 2026-05-05 08:12 | 55.66369 | 11.52873 | 13866 ft | 289 kts | 318° |
| 2026-05-05 08:12 | 55.67963 | 11.50788 | 13488 ft | 285 kts | 319° |
| 2026-05-05 08:12 | 55.69553 | 11.48702 | 13119 ft | 282 kts | 319° |
| 2026-05-05 08:13 | 55.71141 | 11.46611 | 12752 ft | 287 kts | 319° |
| 2026-05-05 08:13 | 55.72722 | 11.44526 | 12383 ft | 285 kts | 319° |
| 2026-05-05 08:13 | 55.74298 | 11.42454 | 12012 ft | 281 kts | 319° |
| 2026-05-05 08:13 | 55.75859 | 11.40401 | 11644 ft | 276 kts | 319° |
| 2026-05-05 08:14 | 55.77386 | 11.38387 | 11286 ft | 273 kts | 319° |
| 2026-05-05 08:14 | 55.78959 | 11.36420 | 10933 ft | 280 kts | 323° |
| 2026-05-05 08:14 | 55.80603 | 11.34645 | 10563 ft | 278 kts | 325° |
| 2026-05-05 08:14 | 55.82281 | 11.32977 | 10203 ft | 274 kts | 326° |
| 2026-05-05 08:15 | 55.83928 | 11.31363 | 9940 ft | 266 kts | 326° |
| 2026-05-05 08:15 | 55.85510 | 11.29794 | 9725 ft | 258 kts | 326° |
| 2026-05-05 08:15 | 55.87082 | 11.28206 | 9368 ft | 255 kts | 326° |
| 2026-05-05 08:15 | 55.88609 | 11.26650 | 9051 ft | 252 kts | 326° |
| 2026-05-05 08:16 | 55.90137 | 11.25083 | 8736 ft | 259 kts | 326° |
| 2026-05-05 08:16 | 55.91682 | 11.23499 | 8409 ft | 256 kts | 327° |
| 2026-05-05 08:16 | 55.93216 | 11.21932 | 8094 ft | 252 kts | 327° |
| 2026-05-05 08:16 | 55.94722 | 11.20393 | 7782 ft | 248 kts | 327° |
| 2026-05-05 08:17 | 55.96236 | 11.18841 | 7472 ft | 254 kts | 327° |
| 2026-05-05 08:17 | 55.97755 | 11.17281 | 7150 ft | 252 kts | 328° |
| 2026-05-05 08:17 | 55.99269 | 11.15728 | 6838 ft | 248 kts | 328° |
| 2026-05-05 08:17 | 56.00751 | 11.14207 | 6530 ft | 244 kts | 328° |
| 2026-05-05 08:18 | 56.02227 | 11.12690 | 6226 ft | 245 kts | 328° |
| 2026-05-05 08:18 | 56.03713 | 11.11160 | 5913 ft | 250 kts | 328° |
| 2026-05-05 08:18 | 56.05202 | 11.09626 | 5600 ft | 246 kts | 329° |
| 2026-05-05 08:18 | 56.06662 | 11.08121 | 5289 ft | 242 kts | 329° |
| 2026-05-05 08:19 | 56.08108 | 11.06630 | 4979 ft | 239 kts | 329° |
| 2026-05-05 08:19 | 56.09540 | 11.05151 | 4670 ft | 237 kts | 329° |
| 2026-05-05 08:19 | 56.10996 | 11.03645 | 4370 ft | 242 kts | 329° |
| 2026-05-05 08:19 | 56.12428 | 11.02163 | 4207 ft | 236 kts | 330° |
| 2026-05-05 08:20 | 56.13817 | 11.00726 | 4139 ft | 223 kts | 330° |
| 2026-05-05 08:20 | 56.15169 | 10.99324 | 4081 ft | 229 kts | 330° |
| 2026-05-05 08:20 | 56.16546 | 10.97897 | 4005 ft | 231 kts | 330° |
| 2026-05-05 08:20 | 56.17935 | 10.96454 | 3925 ft | 231 kts | 330° |
| 2026-05-05 08:21 | 56.19382 | 10.95218 | 3831 ft | 230 kts | 341° |
| 2026-05-05 08:21 | 56.20961 | 10.94596 | 3522 ft | 233 kts | 351° |
| 2026-05-05 08:21 | 56.22543 | 10.94231 | 3256 ft | 229 kts | 352° |
| 2026-05-05 08:21 | 56.24113 | 10.93848 | 3023 ft | 224 kts | 351° |
| 2026-05-05 08:22 | 56.25618 | 10.93336 | 2796 ft | 220 kts | 343° |
| 2026-05-05 08:22 | 56.26918 | 10.91986 | 2580 ft | 215 kts | 312° |
| 2026-05-05 08:22 | 56.27570 | 10.89663 | 2441 ft | 210 kts | 285° |
| 2026-05-05 08:22 | 56.27767 | 10.87095 | 2324 ft | 203 kts | 279° |
| 2026-05-05 08:23 | 56.27968 | 10.84643 | 2241 ft | 190 kts | 284° |
| 2026-05-05 08:23 | 56.28226 | 10.82406 | 2014 ft | 181 kts | 285° |
| 2026-05-05 08:23 | 56.28461 | 10.80209 | 1772 ft | 172 kts | 284° |
| 2026-05-05 08:23 | 56.28661 | 10.78193 | 1568 ft | 161 kts | 283° |
| 2026-05-05 08:24 | 56.28864 | 10.76258 | 1361 ft | 156 kts | 284° |
| 2026-05-05 08:24 | 56.29052 | 10.74420 | 1163 ft | 141 kts | 283° |
| 2026-05-05 08:24 | 56.29222 | 10.72765 | 1000 ft | 130 kts | 284° |
| 2026-05-05 08:24 | 56.29381 | 10.71228 | 825 ft | 122 kts | 283° |
| 2026-05-05 08:25 | 56.29539 | 10.69712 | 706 ft | 123 kts | 283° |
| 2026-05-05 08:25 | 56.29691 | 10.68191 | 550 ft | 125 kts | 283° |
| 2026-05-05 08:25 | 56.29852 | 10.66634 | 397 ft | 127 kts | 283° |
| 2026-05-05 08:25 | 56.30011 | 10.65082 | 227 ft | 123 kts | 282° |
| 2026-05-05 08:26 | 56.30163 | 10.63592 | 82 ft | 116 kts | 282° |
| 2026-05-05 08:26 | 56.30281 | 10.62445 | 77 ft | 72 kts | 281° |
| 2026-05-05 08:26 | 56.30361 | 10.61635 | 80 ft | 59 kts | 282° |
| 2026-05-05 08:26 | 56.30423 | 10.61012 | 80 ft | 44 kts | 280° |
| 2026-05-05 08:27 | 56.30490 | 10.60702 | 77 ft | 20 kts | 344° |
| 2026-05-05 08:27 | 56.30627 | 10.60730 | 77 ft | 16 kts | 31° |
| 2026-05-05 08:27 | 56.30632 | 10.60903 | 74 ft | 14 kts | 99° |
| 2026-05-05 08:27 | 56.30612 | 10.61093 | 75 ft | 16 kts | 101° |
| 2026-05-05 08:28 | 56.30591 | 10.61302 | 75 ft | 17 kts | 100° |
| 2026-05-05 08:28 | 56.30569 | 10.61530 | 76 ft | 19 kts | 99° |
| 2026-05-05 08:28 | 56.30544 | 10.61776 | 76 ft | 20 kts | 101° |
| 2026-05-05 08:28 | 56.30516 | 10.62048 | 74 ft | 23 kts | 100° |
| 2026-05-05 08:29 | 56.30546 | 10.62247 | 74 ft | 16 kts | 40° |
| 2026-05-05 08:29 | 56.30640 | 10.62391 | 74 ft | 18 kts | 45° |
| 2026-05-05 08:29 | 56.30660 | 10.62615 | 74 ft | 19 kts | 99° |
| 2026-05-05 08:30 | 56.30699 | 10.62715 | 74 ft | 1 kts | 8° |
| 2026-05-05 08:30 | 56.30710 | 10.62717 | 74 ft | 0 kts | 8° |